sensor_id;sensor_type;location;lat;lon;timestamp;P1;durP1;ratioP1;P2;durP2;ratioP2
55025;SDS011;40925;45.666;18.994;2023-07-30T00:00:18;6.90;;;5.40;;
55025;SDS011;40925;45.666;18.994;2023-07-30T00:02:44;7.32;;;5.45;;
55025;SDS011;40925;45.666;18.994;2023-07-30T00:05:09;8.57;;;5.55;;
55025;SDS011;40925;45.666;18.994;2023-07-30T00:07:35;9.52;;;5.85;;
55025;SDS011;40925;45.666;18.994;2023-07-30T00:10:01;8.77;;;6.07;;
55025;SDS011;40925;45.666;18.994;2023-07-30T00:12:27;10.32;;;5.72;;
55025;SDS011;40925;45.666;18.994;2023-07-30T00:14:52;9.15;;;6.05;;
55025;SDS011;40925;45.666;18.994;2023-07-30T00:17:18;8.00;;;5.90;;
55025;SDS011;40925;45.666;18.994;2023-07-30T00:19:44;8.30;;;5.85;;
55025;SDS011;40925;45.666;18.994;2023-07-30T00:22:09;9.13;;;5.57;;
55025;SDS011;40925;45.666;18.994;2023-07-30T00:24:35;8.57;;;5.30;;
55025;SDS011;40925;45.666;18.994;2023-07-30T00:27:01;7.47;;;5.22;;
55025;SDS011;40925;45.666;18.994;2023-07-30T00:29:26;9.10;;;5.25;;
55025;SDS011;40925;45.666;18.994;2023-07-30T00:31:52;6.68;;;5.20;;
55025;SDS011;40925;45.666;18.994;2023-07-30T00:34:18;10.02;;;6.95;;
55025;SDS011;40925;45.666;18.994;2023-07-30T00:36:43;8.63;;;6.18;;
55025;SDS011;40925;45.666;18.994;2023-07-30T00:39:09;10.98;;;6.10;;
55025;SDS011;40925;45.666;18.994;2023-07-30T00:41:36;12.98;;;7.13;;
55025;SDS011;40925;45.666;18.994;2023-07-30T00:44:02;11.98;;;6.70;;
55025;SDS011;40925;45.666;18.994;2023-07-30T00:46:28;11.95;;;6.50;;
55025;SDS011;40925;45.666;18.994;2023-07-30T00:48:54;9.80;;;6.28;;
55025;SDS011;40925;45.666;18.994;2023-07-30T00:51:19;8.27;;;6.47;;
55025;SDS011;40925;45.666;18.994;2023-07-30T00:53:45;7.90;;;6.20;;
55025;SDS011;40925;45.666;18.994;2023-07-30T00:56:11;7.53;;;6.38;;
55025;SDS011;40925;45.666;18.994;2023-07-30T00:58:38;7.10;;;5.93;;
55025;SDS011;40925;45.666;18.994;2023-07-30T01:01:05;8.30;;;5.72;;
55025;SDS011;40925;45.666;18.994;2023-07-30T01:03:32;10.55;;;6.50;;
55025;SDS011;40925;45.666;18.994;2023-07-30T01:05:58;8.45;;;6.03;;
55025;SDS011;40925;45.666;18.994;2023-07-30T01:08:24;7.88;;;6.05;;
55025;SDS011;40925;45.666;18.994;2023-07-30T01:10:50;6.95;;;5.82;;
55025;SDS011;40925;45.666;18.994;2023-07-30T01:13:16;7.38;;;5.95;;
55025;SDS011;40925;45.666;18.994;2023-07-30T01:15:43;7.53;;;5.85;;
55025;SDS011;40925;45.666;18.994;2023-07-30T01:18:10;7.38;;;6.07;;
55025;SDS011;40925;45.666;18.994;2023-07-30T01:20:35;8.55;;;6.25;;
55025;SDS011;40925;45.666;18.994;2023-07-30T01:23:01;7.53;;;6.18;;
55025;SDS011;40925;45.666;18.994;2023-07-30T01:25:28;9.27;;;6.47;;
55025;SDS011;40925;45.666;18.994;2023-07-30T01:27:57;7.45;;;6.22;;
55025;SDS011;40925;45.666;18.994;2023-07-30T01:30:26;12.30;;;6.40;;
55025;SDS011;40925;45.666;18.994;2023-07-30T01:32:55;7.40;;;6.18;;
55025;SDS011;40925;45.666;18.994;2023-07-30T01:35:24;8.38;;;6.13;;
55025;SDS011;40925;45.666;18.994;2023-07-30T01:37:52;11.00;;;6.13;;
55025;SDS011;40925;45.666;18.994;2023-07-30T01:40:19;8.93;;;6.13;;
55025;SDS011;40925;45.666;18.994;2023-07-30T01:42:45;8.43;;;5.55;;
55025;SDS011;40925;45.666;18.994;2023-07-30T01:45:11;7.97;;;6.32;;
55025;SDS011;40925;45.666;18.994;2023-07-30T01:47:37;7.80;;;5.60;;
55025;SDS011;40925;45.666;18.994;2023-07-30T01:50:02;7.65;;;5.55;;
55025;SDS011;40925;45.666;18.994;2023-07-30T01:52:28;8.35;;;5.60;;
55025;SDS011;40925;45.666;18.994;2023-07-30T01:54:54;7.57;;;5.70;;
55025;SDS011;40925;45.666;18.994;2023-07-30T01:57:21;8.02;;;6.00;;
55025;SDS011;40925;45.666;18.994;2023-07-30T01:59:47;7.50;;;5.70;;
55025;SDS011;40925;45.666;18.994;2023-07-30T02:02:12;8.27;;;5.45;;
55025;SDS011;40925;45.666;18.994;2023-07-30T02:04:38;10.05;;;6.32;;
55025;SDS011;40925;45.666;18.994;2023-07-30T02:07:04;8.93;;;6.82;;
55025;SDS011;40925;45.666;18.994;2023-07-30T02:09:30;7.75;;;5.97;;
55025;SDS011;40925;45.666;18.994;2023-07-30T02:11:55;7.82;;;6.05;;
55025;SDS011;40925;45.666;18.994;2023-07-30T02:14:21;7.88;;;6.70;;
55025;SDS011;40925;45.666;18.994;2023-07-30T02:16:47;9.38;;;6.95;;
55025;SDS011;40925;45.666;18.994;2023-07-30T02:19:13;9.95;;;7.57;;
55025;SDS011;40925;45.666;18.994;2023-07-30T02:21:38;11.23;;;7.35;;
55025;SDS011;40925;45.666;18.994;2023-07-30T02:24:07;9.93;;;7.30;;
55025;SDS011;40925;45.666;18.994;2023-07-30T02:26:36;8.88;;;7.00;;
55025;SDS011;40925;45.666;18.994;2023-07-30T02:29:02;9.57;;;6.82;;
55025;SDS011;40925;45.666;18.994;2023-07-30T02:31:28;10.25;;;7.45;;
55025;SDS011;40925;45.666;18.994;2023-07-30T02:33:53;8.95;;;6.25;;
55025;SDS011;40925;45.666;18.994;2023-07-30T02:36:19;9.80;;;6.32;;
55025;SDS011;40925;45.666;18.994;2023-07-30T02:38:45;8.85;;;6.78;;
55025;SDS011;40925;45.666;18.994;2023-07-30T02:41:11;8.57;;;7.00;;
55025;SDS011;40925;45.666;18.994;2023-07-30T02:43:36;10.32;;;6.68;;
55025;SDS011;40925;45.666;18.994;2023-07-30T02:46:02;10.07;;;6.93;;
55025;SDS011;40925;45.666;18.994;2023-07-30T02:48:28;8.57;;;7.25;;
55025;SDS011;40925;45.666;18.994;2023-07-30T02:50:53;11.85;;;7.65;;
55025;SDS011;40925;45.666;18.994;2023-07-30T02:53:19;11.30;;;7.88;;
55025;SDS011;40925;45.666;18.994;2023-07-30T02:55:45;10.43;;;7.40;;
55025;SDS011;40925;45.666;18.994;2023-07-30T02:58:12;11.05;;;8.02;;
55025;SDS011;40925;45.666;18.994;2023-07-30T03:00:38;10.75;;;7.32;;
55025;SDS011;40925;45.666;18.994;2023-07-30T03:03:04;9.93;;;7.75;;
55025;SDS011;40925;45.666;18.994;2023-07-30T03:05:30;9.40;;;7.43;;
55025;SDS011;40925;45.666;18.994;2023-07-30T03:07:56;11.35;;;7.82;;
55025;SDS011;40925;45.666;18.994;2023-07-30T03:10:22;11.68;;;8.50;;
55025;SDS011;40925;45.666;18.994;2023-07-30T03:12:48;12.95;;;8.38;;
55025;SDS011;40925;45.666;18.994;2023-07-30T03:15:14;12.57;;;9.70;;
55025;SDS011;40925;45.666;18.994;2023-07-30T03:17:40;15.18;;;8.88;;
55025;SDS011;40925;45.666;18.994;2023-07-30T03:20:06;11.80;;;9.55;;
55025;SDS011;40925;45.666;18.994;2023-07-30T03:22:32;13.18;;;9.00;;
55025;SDS011;40925;45.666;18.994;2023-07-30T03:24:58;14.77;;;9.45;;
55025;SDS011;40925;45.666;18.994;2023-07-30T03:27:23;12.50;;;8.88;;
55025;SDS011;40925;45.666;18.994;2023-07-30T03:29:49;16.70;;;9.40;;
55025;SDS011;40925;45.666;18.994;2023-07-30T03:32:15;14.73;;;7.90;;
55025;SDS011;40925;45.666;18.994;2023-07-30T03:34:41;13.30;;;8.85;;
55025;SDS011;40925;45.666;18.994;2023-07-30T03:37:06;11.50;;;7.80;;
55025;SDS011;40925;45.666;18.994;2023-07-30T03:39:32;10.50;;;7.22;;
55025;SDS011;40925;45.666;18.994;2023-07-30T03:41:58;11.88;;;6.65;;
55025;SDS011;40925;45.666;18.994;2023-07-30T03:44:23;9.25;;;6.95;;
55025;SDS011;40925;45.666;18.994;2023-07-30T03:46:49;10.57;;;6.60;;
55025;SDS011;40925;45.666;18.994;2023-07-30T03:49:15;12.82;;;6.85;;
55025;SDS011;40925;45.666;18.994;2023-07-30T03:51:40;8.63;;;6.40;;
55025;SDS011;40925;45.666;18.994;2023-07-30T03:54:06;13.25;;;6.53;;
55025;SDS011;40925;45.666;18.994;2023-07-30T03:56:32;10.07;;;6.72;;
55025;SDS011;40925;45.666;18.994;2023-07-30T03:58:57;9.98;;;6.75;;
55025;SDS011;40925;45.666;18.994;2023-07-30T04:01:23;13.20;;;7.70;;
55025;SDS011;40925;45.666;18.994;2023-07-30T04:03:49;12.52;;;7.80;;
55025;SDS011;40925;45.666;18.994;2023-07-30T04:06:14;11.13;;;8.00;;
55025;SDS011;40925;45.666;18.994;2023-07-30T04:08:40;10.02;;;6.90;;
55025;SDS011;40925;45.666;18.994;2023-07-30T04:11:06;10.25;;;8.05;;
55025;SDS011;40925;45.666;18.994;2023-07-30T04:13:31;8.95;;;7.75;;
55025;SDS011;40925;45.666;18.994;2023-07-30T04:15:57;8.93;;;7.85;;
55025;SDS011;40925;45.666;18.994;2023-07-30T04:18:23;11.80;;;8.20;;
55025;SDS011;40925;45.666;18.994;2023-07-30T04:20:49;9.38;;;7.28;;
55025;SDS011;40925;45.666;18.994;2023-07-30T04:23:15;8.88;;;6.60;;
55025;SDS011;40925;45.666;18.994;2023-07-30T04:25:43;8.65;;;6.32;;
55025;SDS011;40925;45.666;18.994;2023-07-30T04:28:09;9.07;;;6.45;;
55025;SDS011;40925;45.666;18.994;2023-07-30T04:30:35;9.18;;;7.07;;
55025;SDS011;40925;45.666;18.994;2023-07-30T04:33:00;9.07;;;6.32;;
55025;SDS011;40925;45.666;18.994;2023-07-30T04:35:26;9.32;;;6.55;;
55025;SDS011;40925;45.666;18.994;2023-07-30T04:37:52;6.72;;;5.63;;
55025;SDS011;40925;45.666;18.994;2023-07-30T04:40:18;7.68;;;6.22;;
55025;SDS011;40925;45.666;18.994;2023-07-30T04:42:44;9.05;;;6.53;;
55025;SDS011;40925;45.666;18.994;2023-07-30T04:45:11;9.15;;;6.68;;
55025;SDS011;40925;45.666;18.994;2023-07-30T04:47:36;11.30;;;7.18;;
55025;SDS011;40925;45.666;18.994;2023-07-30T04:50:02;10.20;;;6.60;;
55025;SDS011;40925;45.666;18.994;2023-07-30T04:52:28;11.32;;;6.43;;
55025;SDS011;40925;45.666;18.994;2023-07-30T04:54:54;6.55;;;5.80;;
55025;SDS011;40925;45.666;18.994;2023-07-30T04:57:19;9.25;;;6.40;;
55025;SDS011;40925;45.666;18.994;2023-07-30T04:59:45;8.57;;;5.93;;
55025;SDS011;40925;45.666;18.994;2023-07-30T05:02:11;8.40;;;5.85;;
55025;SDS011;40925;45.666;18.994;2023-07-30T05:04:37;8.10;;;6.03;;
55025;SDS011;40925;45.666;18.994;2023-07-30T05:07:03;9.10;;;5.97;;
55025;SDS011;40925;45.666;18.994;2023-07-30T05:09:29;7.50;;;5.93;;
55025;SDS011;40925;45.666;18.994;2023-07-30T05:11:55;10.13;;;6.25;;
55025;SDS011;40925;45.666;18.994;2023-07-30T05:14:21;9.52;;;6.20;;
55025;SDS011;40925;45.666;18.994;2023-07-30T05:16:47;10.57;;;6.20;;
55025;SDS011;40925;45.666;18.994;2023-07-30T05:19:12;9.10;;;6.00;;
55025;SDS011;40925;45.666;18.994;2023-07-30T05:21:38;9.80;;;6.00;;
55025;SDS011;40925;45.666;18.994;2023-07-30T05:24:04;9.23;;;6.00;;
55025;SDS011;40925;45.666;18.994;2023-07-30T05:26:30;12.38;;;6.50;;
55025;SDS011;40925;45.666;18.994;2023-07-30T05:28:55;8.00;;;6.55;;
55025;SDS011;40925;45.666;18.994;2023-07-30T05:31:21;8.52;;;5.90;;
55025;SDS011;40925;45.666;18.994;2023-07-30T05:33:47;8.00;;;5.65;;
55025;SDS011;40925;45.666;18.994;2023-07-30T05:36:12;10.20;;;6.38;;
55025;SDS011;40925;45.666;18.994;2023-07-30T05:38:38;7.93;;;5.70;;
55025;SDS011;40925;45.666;18.994;2023-07-30T05:41:04;11.02;;;5.88;;
55025;SDS011;40925;45.666;18.994;2023-07-30T05:43:30;9.65;;;6.10;;
55025;SDS011;40925;45.666;18.994;2023-07-30T05:45:56;6.60;;;5.55;;
55025;SDS011;40925;45.666;18.994;2023-07-30T05:48:21;7.88;;;5.18;;
55025;SDS011;40925;45.666;18.994;2023-07-30T05:50:47;6.68;;;5.00;;
55025;SDS011;40925;45.666;18.994;2023-07-30T05:53:13;7.20;;;4.63;;
55025;SDS011;40925;45.666;18.994;2023-07-30T05:55:40;5.13;;;4.60;;
55025;SDS011;40925;45.666;18.994;2023-07-30T05:58:06;6.20;;;4.50;;
55025;SDS011;40925;45.666;18.994;2023-07-30T06:00:32;7.63;;;4.47;;
55025;SDS011;40925;45.666;18.994;2023-07-30T06:02:57;5.32;;;4.40;;
55025;SDS011;40925;45.666;18.994;2023-07-30T06:05:23;8.65;;;6.63;;
55025;SDS011;40925;45.666;18.994;2023-07-30T06:07:49;7.40;;;4.05;;
55025;SDS011;40925;45.666;18.994;2023-07-30T06:10:15;5.95;;;4.20;;
55025;SDS011;40925;45.666;18.994;2023-07-30T06:12:41;5.22;;;4.22;;
55025;SDS011;40925;45.666;18.994;2023-07-30T06:15:08;5.40;;;4.07;;
55025;SDS011;40925;45.666;18.994;2023-07-30T06:17:34;6.13;;;4.15;;
55025;SDS011;40925;45.666;18.994;2023-07-30T06:20:00;7.32;;;4.80;;
55025;SDS011;40925;45.666;18.994;2023-07-30T06:22:26;6.53;;;4.70;;
55025;SDS011;40925;45.666;18.994;2023-07-30T06:24:52;6.82;;;5.30;;
55025;SDS011;40925;45.666;18.994;2023-07-30T06:27:18;6.32;;;4.20;;
55025;SDS011;40925;45.666;18.994;2023-07-30T06:29:44;7.93;;;4.63;;
55025;SDS011;40925;45.666;18.994;2023-07-30T06:32:10;7.10;;;4.32;;
55025;SDS011;40925;45.666;18.994;2023-07-30T06:34:35;6.78;;;4.72;;
55025;SDS011;40925;45.666;18.994;2023-07-30T06:37:01;5.70;;;4.50;;
55025;SDS011;40925;45.666;18.994;2023-07-30T06:39:27;6.22;;;4.40;;
55025;SDS011;40925;45.666;18.994;2023-07-30T06:41:52;11.15;;;4.47;;
55025;SDS011;40925;45.666;18.994;2023-07-30T06:44:18;6.57;;;4.57;;
55025;SDS011;40925;45.666;18.994;2023-07-30T06:46:44;7.50;;;4.68;;
55025;SDS011;40925;45.666;18.994;2023-07-30T06:49:09;7.05;;;4.40;;
55025;SDS011;40925;45.666;18.994;2023-07-30T06:51:35;5.78;;;4.28;;
55025;SDS011;40925;45.666;18.994;2023-07-30T06:54:02;6.97;;;4.30;;
55025;SDS011;40925;45.666;18.994;2023-07-30T06:56:28;6.82;;;4.50;;
55025;SDS011;40925;45.666;18.994;2023-07-30T06:58:54;8.48;;;4.82;;
55025;SDS011;40925;45.666;18.994;2023-07-30T07:01:20;7.13;;;4.38;;
55025;SDS011;40925;45.666;18.994;2023-07-30T07:03:46;5.28;;;4.25;;
55025;SDS011;40925;45.666;18.994;2023-07-30T07:06:12;6.10;;;4.10;;
55025;SDS011;40925;45.666;18.994;2023-07-30T07:08:38;6.10;;;4.00;;
55025;SDS011;40925;45.666;18.994;2023-07-30T07:11:03;6.32;;;4.28;;
55025;SDS011;40925;45.666;18.994;2023-07-30T07:13:29;5.97;;;3.90;;
55025;SDS011;40925;45.666;18.994;2023-07-30T07:15:55;6.07;;;4.25;;
55025;SDS011;40925;45.666;18.994;2023-07-30T07:18:21;6.78;;;4.65;;
55025;SDS011;40925;45.666;18.994;2023-07-30T07:20:46;6.15;;;4.20;;
55025;SDS011;40925;45.666;18.994;2023-07-30T07:23:12;8.90;;;4.32;;
55025;SDS011;40925;45.666;18.994;2023-07-30T07:25:38;7.10;;;4.35;;
55025;SDS011;40925;45.666;18.994;2023-07-30T07:28:03;7.30;;;4.38;;
55025;SDS011;40925;45.666;18.994;2023-07-30T07:30:29;7.80;;;4.05;;
55025;SDS011;40925;45.666;18.994;2023-07-30T07:32:55;9.90;;;5.00;;
55025;SDS011;40925;45.666;18.994;2023-07-30T07:35:20;7.57;;;3.90;;
55025;SDS011;40925;45.666;18.994;2023-07-30T07:37:47;6.78;;;3.88;;
55025;SDS011;40925;45.666;18.994;2023-07-30T07:40:13;5.63;;;3.97;;
55025;SDS011;40925;45.666;18.994;2023-07-30T07:42:39;5.38;;;4.05;;
55025;SDS011;40925;45.666;18.994;2023-07-30T07:45:06;6.35;;;4.18;;
55025;SDS011;40925;45.666;18.994;2023-07-30T07:47:32;4.93;;;3.65;;
55025;SDS011;40925;45.666;18.994;2023-07-30T07:49:58;6.82;;;3.70;;
55025;SDS011;40925;45.666;18.994;2023-07-30T07:52:24;7.22;;;3.95;;
55025;SDS011;40925;45.666;18.994;2023-07-30T07:54:50;7.22;;;4.00;;
55025;SDS011;40925;45.666;18.994;2023-07-30T07:57:16;7.25;;;4.28;;
55025;SDS011;40925;45.666;18.994;2023-07-30T07:59:42;6.18;;;4.28;;
55025;SDS011;40925;45.666;18.994;2023-07-30T08:02:12;6.20;;;4.35;;
55025;SDS011;40925;45.666;18.994;2023-07-30T08:04:39;5.53;;;3.67;;
55025;SDS011;40925;45.666;18.994;2023-07-30T08:07:05;5.70;;;3.97;;
55025;SDS011;40925;45.666;18.994;2023-07-30T08:09:31;5.82;;;4.10;;
55025;SDS011;40925;45.666;18.994;2023-07-30T08:11:58;8.38;;;4.20;;
55025;SDS011;40925;45.666;18.994;2023-07-30T08:14:25;5.90;;;4.00;;
55025;SDS011;40925;45.666;18.994;2023-07-30T08:16:51;4.85;;;4.10;;
55025;SDS011;40925;45.666;18.994;2023-07-30T08:19:18;5.70;;;4.18;;
55025;SDS011;40925;45.666;18.994;2023-07-30T08:21:45;5.55;;;4.25;;
55025;SDS011;40925;45.666;18.994;2023-07-30T08:24:11;5.90;;;4.10;;
55025;SDS011;40925;45.666;18.994;2023-07-30T08:26:37;5.07;;;3.90;;
55025;SDS011;40925;45.666;18.994;2023-07-30T08:29:04;6.43;;;4.65;;
55025;SDS011;40925;45.666;18.994;2023-07-30T08:31:31;6.07;;;4.15;;
55025;SDS011;40925;45.666;18.994;2023-07-30T08:33:57;6.85;;;4.13;;
55025;SDS011;40925;45.666;18.994;2023-07-30T08:36:23;8.23;;;4.38;;
55025;SDS011;40925;45.666;18.994;2023-07-30T08:38:48;5.82;;;4.15;;
55025;SDS011;40925;45.666;18.994;2023-07-30T08:41:14;5.72;;;4.05;;
55025;SDS011;40925;45.666;18.994;2023-07-30T08:43:40;6.78;;;4.20;;
55025;SDS011;40925;45.666;18.994;2023-07-30T08:46:06;7.22;;;4.20;;
55025;SDS011;40925;45.666;18.994;2023-07-30T08:48:31;6.88;;;4.25;;
55025;SDS011;40925;45.666;18.994;2023-07-30T08:50:58;5.38;;;4.07;;
55025;SDS011;40925;45.666;18.994;2023-07-30T08:53:24;7.35;;;4.68;;
55025;SDS011;40925;45.666;18.994;2023-07-30T08:55:53;6.50;;;4.10;;
55025;SDS011;40925;45.666;18.994;2023-07-30T08:58:21;6.05;;;4.40;;
55025;SDS011;40925;45.666;18.994;2023-07-30T09:00:49;7.70;;;3.90;;
55025;SDS011;40925;45.666;18.994;2023-07-30T09:03:16;6.63;;;4.00;;
55025;SDS011;40925;45.666;18.994;2023-07-30T09:05:43;5.72;;;4.18;;
55025;SDS011;40925;45.666;18.994;2023-07-30T09:08:09;5.57;;;3.83;;
55025;SDS011;40925;45.666;18.994;2023-07-30T09:10:35;7.55;;;4.65;;
55025;SDS011;40925;45.666;18.994;2023-07-30T09:13:03;6.13;;;4.40;;
55025;SDS011;40925;45.666;18.994;2023-07-30T09:15:29;7.47;;;4.30;;
55025;SDS011;40925;45.666;18.994;2023-07-30T09:18:02;6.43;;;3.88;;
55025;SDS011;40925;45.666;18.994;2023-07-30T09:20:36;5.75;;;4.07;;
55025;SDS011;40925;45.666;18.994;2023-07-30T09:25:30;6.50;;;4.50;;
55025;SDS011;40925;45.666;18.994;2023-07-30T09:27:55;5.35;;;4.00;;
55025;SDS011;40925;45.666;18.994;2023-07-30T09:30:22;5.38;;;3.60;;
55025;SDS011;40925;45.666;18.994;2023-07-30T09:32:53;5.50;;;3.50;;
55025;SDS011;40925;45.666;18.994;2023-07-30T09:35:23;5.75;;;3.88;;
55025;SDS011;40925;45.666;18.994;2023-07-30T09:37:57;6.65;;;3.90;;
55025;SDS011;40925;45.666;18.994;2023-07-30T09:40:31;6.82;;;4.53;;
55025;SDS011;40925;45.666;18.994;2023-07-30T09:43:02;6.13;;;3.90;;
55025;SDS011;40925;45.666;18.994;2023-07-30T09:45:32;5.80;;;3.78;;
55025;SDS011;40925;45.666;18.994;2023-07-30T09:48:00;5.80;;;3.80;;
55025;SDS011;40925;45.666;18.994;2023-07-30T09:50:29;9.40;;;3.88;;
55025;SDS011;40925;45.666;18.994;2023-07-30T09:52:55;6.00;;;4.30;;
55025;SDS011;40925;45.666;18.994;2023-07-30T09:55:23;7.78;;;4.32;;
55025;SDS011;40925;45.666;18.994;2023-07-30T09:57:49;8.52;;;5.22;;
55025;SDS011;40925;45.666;18.994;2023-07-30T10:00:14;7.75;;;4.72;;
55025;SDS011;40925;45.666;18.994;2023-07-30T10:02:43;6.70;;;4.32;;
55025;SDS011;40925;45.666;18.994;2023-07-30T10:05:15;6.15;;;3.90;;
55025;SDS011;40925;45.666;18.994;2023-07-30T10:07:58;7.07;;;3.90;;
55025;SDS011;40925;45.666;18.994;2023-07-30T10:10:25;4.15;;;3.75;;
55025;SDS011;40925;45.666;18.994;2023-07-30T10:12:53;7.13;;;3.90;;
55025;SDS011;40925;45.666;18.994;2023-07-30T10:15:19;8.40;;;4.22;;
55025;SDS011;40925;45.666;18.994;2023-07-30T10:17:49;8.38;;;4.68;;
55025;SDS011;40925;45.666;18.994;2023-07-30T10:22:45;6.95;;;3.20;;
55025;SDS011;40925;45.666;18.994;2023-07-30T10:25:12;7.50;;;2.80;;
55025;SDS011;40925;45.666;18.994;2023-07-30T10:27:40;7.65;;;3.33;;
55025;SDS011;40925;45.666;18.994;2023-07-30T10:30:15;8.13;;;3.05;;
55025;SDS011;40925;45.666;18.994;2023-07-30T10:35:45;6.35;;;3.45;;
55025;SDS011;40925;45.666;18.994;2023-07-30T10:43:41;4.53;;;3.08;;
55025;SDS011;40925;45.666;18.994;2023-07-30T10:46:15;4.78;;;2.83;;
55025;SDS011;40925;45.666;18.994;2023-07-30T10:48:43;3.72;;;2.72;;
55025;SDS011;40925;45.666;18.994;2023-07-30T10:51:11;5.90;;;3.00;;
55025;SDS011;40925;45.666;18.994;2023-07-30T10:53:37;4.13;;;2.85;;
55025;SDS011;40925;45.666;18.994;2023-07-30T10:56:04;3.88;;;2.80;;
55025;SDS011;40925;45.666;18.994;2023-07-30T10:58:31;4.40;;;2.80;;
55025;SDS011;40925;45.666;18.994;2023-07-30T11:00:58;4.22;;;2.38;;
55025;SDS011;40925;45.666;18.994;2023-07-30T11:03:24;7.15;;;5.38;;
55025;SDS011;40925;45.666;18.994;2023-07-30T11:05:51;8.27;;;5.00;;
55025;SDS011;40925;45.666;18.994;2023-07-30T11:08:18;9.10;;;6.45;;
55025;SDS011;40925;45.666;18.994;2023-07-30T11:10:44;10.77;;;6.07;;
55025;SDS011;40925;45.666;18.994;2023-07-30T11:13:12;8.02;;;5.07;;
55025;SDS011;40925;45.666;18.994;2023-07-30T11:15:42;7.15;;;4.68;;
55025;SDS011;40925;45.666;18.994;2023-07-30T11:18:08;9.38;;;6.18;;
55025;SDS011;40925;45.666;18.994;2023-07-30T11:20:35;12.02;;;7.80;;
55025;SDS011;40925;45.666;18.994;2023-07-30T11:23:02;9.23;;;5.45;;
55025;SDS011;40925;45.666;18.994;2023-07-30T11:25:28;11.57;;;7.75;;
55025;SDS011;40925;45.666;18.994;2023-07-30T11:27:54;8.93;;;5.82;;
55025;SDS011;40925;45.666;18.994;2023-07-30T11:30:20;12.18;;;7.32;;
55025;SDS011;40925;45.666;18.994;2023-07-30T11:32:46;12.43;;;7.45;;
55025;SDS011;40925;45.666;18.994;2023-07-30T11:35:12;6.75;;;5.40;;
55025;SDS011;40925;45.666;18.994;2023-07-30T11:37:39;9.52;;;5.65;;
55025;SDS011;40925;45.666;18.994;2023-07-30T11:40:08;6.55;;;3.83;;
55025;SDS011;40925;45.666;18.994;2023-07-30T11:42:35;7.75;;;5.18;;
55025;SDS011;40925;45.666;18.994;2023-07-30T11:45:20;5.35;;;3.80;;
55025;SDS011;40925;45.666;18.994;2023-07-30T11:47:47;5.35;;;3.75;;
55025;SDS011;40925;45.666;18.994;2023-07-30T11:50:13;6.75;;;4.30;;
55025;SDS011;40925;45.666;18.994;2023-07-30T11:55:18;6.07;;;3.80;;
55025;SDS011;40925;45.666;18.994;2023-07-30T11:57:47;5.05;;;3.35;;
55025;SDS011;40925;45.666;18.994;2023-07-30T12:00:13;4.80;;;3.10;;
55025;SDS011;40925;45.666;18.994;2023-07-30T12:02:39;5.15;;;3.30;;
55025;SDS011;40925;45.666;18.994;2023-07-30T12:05:05;4.88;;;3.00;;
55025;SDS011;40925;45.666;18.994;2023-07-30T12:07:32;3.78;;;2.72;;
55025;SDS011;40925;45.666;18.994;2023-07-30T12:10:11;6.00;;;3.50;;
55025;SDS011;40925;45.666;18.994;2023-07-30T12:12:44;5.80;;;4.00;;
55025;SDS011;40925;45.666;18.994;2023-07-30T12:15:10;7.68;;;5.00;;
55025;SDS011;40925;45.666;18.994;2023-07-30T12:17:40;9.00;;;4.88;;
55025;SDS011;40925;45.666;18.994;2023-07-30T12:20:06;6.15;;;4.05;;
55025;SDS011;40925;45.666;18.994;2023-07-30T12:22:32;5.55;;;3.50;;
55025;SDS011;40925;45.666;18.994;2023-07-30T12:25:03;7.38;;;4.60;;
55025;SDS011;40925;45.666;18.994;2023-07-30T12:27:29;8.80;;;4.68;;
55025;SDS011;40925;45.666;18.994;2023-07-30T12:29:55;4.93;;;3.50;;
55025;SDS011;40925;45.666;18.994;2023-07-30T12:32:21;5.18;;;3.30;;
55025;SDS011;40925;45.666;18.994;2023-07-30T12:34:47;5.22;;;3.42;;
55025;SDS011;40925;45.666;18.994;2023-07-30T12:37:13;11.73;;;6.40;;
55025;SDS011;40925;45.666;18.994;2023-07-30T12:39:39;6.68;;;4.03;;
55025;SDS011;40925;45.666;18.994;2023-07-30T12:42:04;4.35;;;3.08;;
55025;SDS011;40925;45.666;18.994;2023-07-30T12:44:30;5.88;;;3.28;;
55025;SDS011;40925;45.666;18.994;2023-07-30T12:46:56;5.20;;;3.38;;
55025;SDS011;40925;45.666;18.994;2023-07-30T12:49:21;4.43;;;3.33;;
55025;SDS011;40925;45.666;18.994;2023-07-30T12:51:47;5.18;;;3.38;;
55025;SDS011;40925;45.666;18.994;2023-07-30T12:54:13;5.15;;;3.10;;
55025;SDS011;40925;45.666;18.994;2023-07-30T12:56:38;4.68;;;3.58;;
55025;SDS011;40925;45.666;18.994;2023-07-30T12:59:07;4.10;;;3.00;;
55025;SDS011;40925;45.666;18.994;2023-07-30T13:01:36;6.85;;;3.10;;
55025;SDS011;40925;45.666;18.994;2023-07-30T13:04:02;5.47;;;3.60;;
55025;SDS011;40925;45.666;18.994;2023-07-30T13:06:27;5.13;;;3.00;;
55025;SDS011;40925;45.666;18.994;2023-07-30T13:08:53;7.90;;;5.40;;
55025;SDS011;40925;45.666;18.994;2023-07-30T13:11:19;5.68;;;3.10;;
55025;SDS011;40925;45.666;18.994;2023-07-30T13:13:45;8.13;;;5.68;;
55025;SDS011;40925;45.666;18.994;2023-07-30T13:16:10;4.05;;;2.90;;
55025;SDS011;40925;45.666;18.994;2023-07-30T13:18:39;4.22;;;2.80;;
55025;SDS011;40925;45.666;18.994;2023-07-30T13:21:05;4.72;;;2.97;;
55025;SDS011;40925;45.666;18.994;2023-07-30T13:23:31;6.28;;;4.43;;
55025;SDS011;40925;45.666;18.994;2023-07-30T13:25:57;6.70;;;2.83;;
55025;SDS011;40925;45.666;18.994;2023-07-30T13:28:23;3.90;;;2.70;;
55025;SDS011;40925;45.666;18.994;2023-07-30T13:30:48;3.58;;;2.40;;
55025;SDS011;40925;45.666;18.994;2023-07-30T13:33:15;4.90;;;2.70;;
55025;SDS011;40925;45.666;18.994;2023-07-30T13:35:41;3.65;;;2.70;;
55025;SDS011;40925;45.666;18.994;2023-07-30T13:38:07;5.47;;;3.15;;
55025;SDS011;40925;45.666;18.994;2023-07-30T13:40:33;5.22;;;2.60;;
55025;SDS011;40925;45.666;18.994;2023-07-30T13:42:58;3.97;;;2.35;;
55025;SDS011;40925;45.666;18.994;2023-07-30T13:45:24;4.80;;;2.60;;
55025;SDS011;40925;45.666;18.994;2023-07-30T13:47:50;4.07;;;2.50;;
55025;SDS011;40925;45.666;18.994;2023-07-30T13:50:15;6.50;;;4.43;;
55025;SDS011;40925;45.666;18.994;2023-07-30T13:52:41;6.60;;;4.65;;
55025;SDS011;40925;45.666;18.994;2023-07-30T13:55:08;11.55;;;8.38;;
55025;SDS011;40925;45.666;18.994;2023-07-30T13:57:34;12.57;;;8.05;;
55025;SDS011;40925;45.666;18.994;2023-07-30T14:00:00;5.70;;;4.60;;
55025;SDS011;40925;45.666;18.994;2023-07-30T14:02:25;5.40;;;4.38;;
55025;SDS011;40925;45.666;18.994;2023-07-30T14:04:52;6.35;;;4.45;;
55025;SDS011;40925;45.666;18.994;2023-07-30T14:07:18;5.07;;;3.88;;
55025;SDS011;40925;45.666;18.994;2023-07-30T14:09:44;8.35;;;6.22;;
55025;SDS011;40925;45.666;18.994;2023-07-30T14:12:09;3.55;;;2.67;;
55025;SDS011;40925;45.666;18.994;2023-07-30T14:14:35;6.55;;;3.92;;
55025;SDS011;40925;45.666;18.994;2023-07-30T14:17:01;3.85;;;2.85;;
55025;SDS011;40925;45.666;18.994;2023-07-30T14:19:34;4.10;;;2.80;;
55025;SDS011;40925;45.666;18.994;2023-07-30T14:22:00;3.80;;;2.90;;
55025;SDS011;40925;45.666;18.994;2023-07-30T14:24:26;4.63;;;3.55;;
55025;SDS011;40925;45.666;18.994;2023-07-30T14:26:52;4.18;;;3.00;;
55025;SDS011;40925;45.666;18.994;2023-07-30T14:29:18;4.07;;;2.90;;
55025;SDS011;40925;45.666;18.994;2023-07-30T14:31:44;5.28;;;3.03;;
55025;SDS011;40925;45.666;18.994;2023-07-30T14:34:09;4.35;;;3.10;;
55025;SDS011;40925;45.666;18.994;2023-07-30T14:36:35;4.32;;;3.13;;
55025;SDS011;40925;45.666;18.994;2023-07-30T14:39:01;4.30;;;3.00;;
55025;SDS011;40925;45.666;18.994;2023-07-30T14:41:27;5.45;;;2.60;;
55025;SDS011;40925;45.666;18.994;2023-07-30T14:43:53;5.78;;;3.10;;